Main page
METAR-TAF:

METAR-TAF

Airports :

Agartala Airport

Agartala, India

latitude: 23-53-24N, longitude: 91-14-32E, elevation: 14 m

Current weather observation

The report was made 39 minutes ago, at 07:30 UTC
Wind 6 kt from the South/Southeast
Temperature 30°C
Humidity 79%
Pressure 1001 hPa
Visibility: 4000 m
Few clouds at a height of 1000 ft
Scattered clouds at a height of 1800 ft
Broken clouds at a height of 10000 ft
mist

METAR: VEAT 300730Z 15006KT 4000 BR FEW010 SCT018 BKN100 30/26 Q1001 NOSIG

Time: 13:39 (08:09 UTC)

Forecast

The report was made 3 hours and 9 minutes ago, at 05:00 UTC
Forecast valid from 30 at 06 UTC to 30 at 15 UTC
Wind 4 kt from the South/Southeast
Visibility: 4000 m
Few clouds at a height of 1000 ft
Scattered clouds at a height of 1800 ft
Broken clouds at a height of 10000 ft
light rain, mist

TAF: VEAT 300500Z 3006/3015 15004KT 4000 -RA BR FEW010 SCT018 BKN100

Weather observations and forecasts of more than 4000 airports (METAR and TAF reports).

The available stations are represented by yellow and red dots on the map.

Hover mouse over dot to see the name of the station.

Then click to see weather observations and forecasts.

To change the map : click on the green buttons with a black cross to zoom in, on the green button with a dash to zoom out, or on the green arrows for adjacent maps.


METAR-TAF: